Time;durP1;ratioP1;P1;durP2;ratioP2;P2;SDS_P1;SDS_P2;PMS_P1;PMS_P2;Temp;Humidity;BMP_temperature;BMP_pressure;BME280_temperature;BME280_humidity;BME280_pressure;Samples;Min_cycle;Max_cycle;Signal;HPM_P1;HPM_P2
2024/01/30 00:01:55;;;;;;;6.47;6.37;;;8.20;99.90;;;;;;5048979;28;20464;-72
2024/01/30 00:04:23;;;;;;;7.10;7.00;;;8.10;99.90;;;;;;5049594;28;20481;-72
2024/01/30 00:06:52;;;;;;;6.63;6.53;;;8.10;99.90;;;;;;5051080;28;20492;-72
2024/01/30 00:09:19;;;;;;;6.70;6.60;;;8.10;99.90;;;;;;5054190;28;20841;-72
2024/01/30 00:11:46;;;;;;;6.43;6.33;;;8.10;99.90;;;;;;5045206;28;20468;-71
2024/01/30 00:14:13;;;;;;;6.30;6.20;;;8.10;99.90;;;;;;5053870;28;20467;-72
2024/01/30 00:16:40;;;;;;;6.30;6.20;;;8.10;99.90;;;;;;5052777;28;20488;-72
2024/01/30 00:19:08;;;;;;;6.20;6.10;;;8.00;99.90;;;;;;5048569;28;20466;-71
2024/01/30 00:21:36;;;;;;;6.40;6.30;;;8.10;99.90;;;;;;5058294;28;20788;-71
2024/01/30 00:24:03;;;;;;;6.60;6.50;;;8.10;99.90;;;;;;5056597;28;20468;-72
2024/01/30 00:26:31;;;;;;;6.37;6.27;;;8.10;99.90;;;;;;5047734;28;20579;-71
2024/01/30 00:28:58;;;;;;;6.83;6.73;;;8.00;99.90;;;;;;5049777;28;20564;-71
2024/01/30 00:31:25;;;;;;;6.27;6.17;;;8.00;99.90;;;;;;5054330;28;20484;-71
2024/01/30 00:33:53;;;;;;;6.60;6.50;;;8.00;99.90;;;;;;5052449;28;20914;-72
2024/01/30 00:36:19;;;;;;;6.30;6.20;;;8.00;99.90;;;;;;5049253;28;20463;-72
2024/01/30 00:38:48;;;;;;;6.40;6.30;;;8.00;99.90;;;;;;5050321;28;20477;-72
2024/01/30 00:41:15;;;;;;;7.10;7.00;;;8.00;99.90;;;;;;5059551;28;20492;-71
2024/01/30 00:43:41;;;;;;;6.63;6.53;;;8.00;99.90;;;;;;5053283;28;20465;-71
2024/01/30 00:46:08;;;;;;;6.40;6.30;;;8.00;99.90;;;;;;5064235;28;20755;-71
2024/01/30 00:48:35;;;;;;;6.23;6.13;;;8.00;99.90;;;;;;5054590;28;20483;-71
2024/01/30 00:51:02;;;;;;;6.70;6.60;;;8.00;99.90;;;;;;5056056;28;20510;-71
2024/01/30 00:53:29;;;;;;;6.10;6.00;;;8.00;99.90;;;;;;5054170;28;20467;-71
2024/01/30 00:55:57;;;;;;;6.00;5.90;;;8.00;99.90;;;;;;5055130;28;20515;-71
2024/01/30 00:58:24;;;;;;;6.20;6.10;;;8.00;99.90;;;;;;5052197;28;20495;-70
2024/01/30 01:00:51;;;;;;;6.27;6.17;;;7.90;99.90;;;;;;5056313;28;21177;-71
2024/01/30 01:03:18;;;;;;;6.20;6.10;;;7.90;99.90;;;;;;5050876;28;20475;-71
2024/01/30 01:05:45;;;;;;;6.53;6.43;;;7.90;99.90;;;;;;5051220;28;20494;-72
2024/01/30 01:08:12;;;;;;;6.40;6.30;;;7.90;99.90;;;;;;5054197;28;20458;-71
2024/01/30 01:10:39;;;;;;;6.77;6.67;;;7.90;99.90;;;;;;5053273;28;20459;-72
2024/01/30 01:13:07;;;;;;;6.80;6.70;;;7.90;99.90;;;;;;5054972;28;20547;-72
2024/01/30 01:15:34;;;;;;;6.30;6.20;;;7.90;99.90;;;;;;5055099;28;20460;-72
2024/01/30 01:18:00;;;;;;;6.50;6.40;;;7.80;99.90;;;;;;5058563;28;20532;-72
2024/01/30 01:20:28;;;;;;;6.47;6.37;;;7.80;99.90;;;;;;5050795;28;20472;-70
2024/01/30 01:22:55;;;;;;;6.17;6.07;;;7.80;99.90;;;;;;5056548;28;20559;-72
2024/01/30 01:25:22;;;;;;;5.93;5.83;;;7.70;99.90;;;;;;5056223;28;20488;-70
2024/01/30 01:27:51;;;;;;;5.90;5.80;;;7.70;99.90;;;;;;5050744;28;20474;-70
2024/01/30 01:30:21;;;;;;;5.80;5.70;;;7.70;99.90;;;;;;5057386;28;20478;-71
2024/01/30 01:32:54;;;;;;;5.90;5.80;;;7.70;99.90;;;;;;5049855;28;20470;-71
2024/01/30 01:35:22;;;;;;;6.30;6.20;;;7.70;99.90;;;;;;5057120;28;20468;-72
2024/01/30 01:37:54;;;;;;;5.80;5.70;;;7.70;99.90;;;;;;5050713;28;20462;-71
2024/01/30 01:40:22;;;;;;;5.60;5.50;;;7.70;99.90;;;;;;5057020;28;20456;-70
2024/01/30 01:42:49;;;;;;;5.70;5.60;;;7.70;99.90;;;;;;5049318;28;20492;-70
2024/01/30 01:45:16;;;;;;;5.43;5.33;;;7.70;99.90;;;;;;5056106;28;21010;-71
2024/01/30 01:47:49;;;;;;;5.97;5.87;;;7.70;99.90;;;;;;5048472;28;20578;-71
2024/01/30 01:50:18;;;;;;;5.73;5.63;;;7.70;99.90;;;;;;5052492;28;21009;-71
2024/01/30 01:52:48;;;;;;;6.03;5.93;;;7.70;99.90;;;;;;5055523;28;20456;-71
2024/01/30 01:55:17;;;;;;;5.90;5.80;;;7.70;99.90;;;;;;5057235;28;20483;-71
2024/01/30 01:57:44;;;;;;;5.90;5.80;;;7.80;99.90;;;;;;5056869;28;20568;-72
2024/01/30 02:00:26;;;;;;;5.70;5.60;;;7.70;99.90;;;;;;5053808;28;20470;-71
2024/01/30 02:02:55;;;;;;;5.50;5.40;;;7.70;99.90;;;;;;5050385;28;20474;-71
2024/01/30 02:05:23;;;;;;;5.73;5.63;;;7.70;99.90;;;;;;5051174;28;21082;-71
2024/01/30 02:07:51;;;;;;;5.80;5.70;;;7.70;99.90;;;;;;5056112;28;20921;-71
2024/01/30 02:10:18;;;;;;;5.83;5.73;;;7.70;99.90;;;;;;5055339;28;20516;-72
2024/01/30 02:12:47;;;;;;;5.87;5.77;;;7.70;99.90;;;;;;5054215;28;20597;-71
2024/01/30 02:15:15;;;;;;;6.37;6.27;;;7.70;99.90;;;;;;5052475;28;20464;-71
2024/01/30 02:17:41;;;;;;;5.50;5.40;;;7.70;99.90;;;;;;5052027;28;20462;-71
2024/01/30 02:20:11;;;;;;;6.30;6.20;;;7.70;99.90;;;;;;5050704;28;20461;-72
2024/01/30 02:22:40;;;;;;;6.10;6.00;;;7.80;99.90;;;;;;5049352;28;20461;-71
2024/01/30 02:25:08;;;;;;;6.30;6.20;;;7.80;99.90;;;;;;5061672;28;20493;-70
2024/01/30 02:27:35;;;;;;;6.10;6.00;;;7.80;99.90;;;;;;5059527;28;20460;-71
2024/01/30 02:30:02;;;;;;;6.30;6.20;;;7.80;99.90;;;;;;5050641;28;20456;-71
2024/01/30 02:32:29;;;;;;;6.13;6.03;;;7.80;99.90;;;;;;5051010;28;20460;-71
2024/01/30 02:34:56;;;;;;;6.77;6.67;;;7.80;99.90;;;;;;5051478;28;20457;-71
2024/01/30 02:37:23;;;;;;;6.40;6.30;;;7.90;99.90;;;;;;5048948;28;20496;-71
2024/01/30 02:39:51;;;;;;;6.40;6.30;;;7.90;99.90;;;;;;5057949;28;20471;-70
2024/01/30 02:42:18;;;;;;;6.20;6.10;;;7.90;99.90;;;;;;5048133;28;20476;-71
2024/01/30 02:44:45;;;;;;;6.30;6.20;;;7.90;99.90;;;;;;5056099;28;20470;-71
2024/01/30 02:47:12;;;;;;;6.07;5.97;;;7.90;99.90;;;;;;5055257;28;20947;-71
2024/01/30 02:49:39;;;;;;;6.50;6.40;;;7.90;99.90;;;;;;5055499;28;21075;-71
2024/01/30 02:52:06;;;;;;;6.60;6.50;;;7.90;99.90;;;;;;5051586;28;21003;-71
2024/01/30 02:54:33;;;;;;;6.30;6.20;;;7.90;99.90;;;;;;5054746;28;20488;-70
2024/01/30 02:57:02;;;;;;;6.77;6.67;;;7.80;99.90;;;;;;5054195;28;20575;-71
2024/01/30 02:59:29;;;;;;;6.93;6.83;;;7.80;99.90;;;;;;5048102;28;20605;-71
2024/01/30 03:01:56;;;;;;;6.80;6.70;;;7.80;99.90;;;;;;5052005;28;20460;-70
2024/01/30 03:04:23;;;;;;;6.77;6.67;;;7.80;99.90;;;;;;5051223;28;20558;-70
2024/01/30 03:06:50;;;;;;;6.63;6.53;;;7.80;99.90;;;;;;5047577;28;20495;-71
2024/01/30 03:09:17;;;;;;;6.90;6.80;;;7.70;99.90;;;;;;5050223;28;20466;-71
2024/01/30 03:11:44;;;;;;;6.60;6.50;;;7.70;99.90;;;;;;5052929;28;20868;-70
2024/01/30 03:14:14;;;;;;;6.90;6.80;;;7.80;99.90;;;;;;5055016;28;20553;-71
2024/01/30 03:16:41;;;;;;;6.70;6.60;;;7.80;99.90;;;;;;5052695;28;20486;-70
2024/01/30 03:19:09;;;;;;;7.00;6.90;;;7.80;99.90;;;;;;5053663;28;20944;-70
2024/01/30 03:21:35;;;;;;;7.20;7.10;;;7.80;99.90;;;;;;5047481;28;20467;-71
2024/01/30 03:24:03;;;;;;;6.93;6.83;;;7.80;99.90;;;;;;5052087;28;21023;-70
2024/01/30 03:26:30;;;;;;;7.10;7.00;;;7.70;99.90;;;;;;5052320;28;20495;-70
2024/01/30 03:28:57;;;;;;;7.20;7.10;;;7.70;99.90;;;;;;5057719;28;20961;-71
2024/01/30 03:31:25;;;;;;;7.03;6.93;;;7.60;99.90;;;;;;5057386;28;20551;-71
2024/01/30 03:33:52;;;;;;;7.00;6.90;;;7.60;99.90;;;;;;5051175;28;20465;-71
2024/01/30 03:36:19;;;;;;;6.90;6.80;;;7.60;99.90;;;;;;5049535;28;20474;-71
2024/01/30 03:38:45;;;;;;;7.30;7.20;;;7.50;99.90;;;;;;5046663;28;20487;-72
2024/01/30 03:41:13;;;;;;;6.53;6.43;;;7.60;99.90;;;;;;5054072;28;20481;-70
2024/01/30 03:43:40;;;;;;;6.67;6.57;;;7.50;99.90;;;;;;5054342;28;20477;-71
2024/01/30 03:46:08;;;;;;;6.83;6.73;;;7.50;99.90;;;;;;5047404;28;20740;-71
2024/01/30 03:48:36;;;;;;;6.80;6.70;;;7.50;99.90;;;;;;5048647;28;20464;-71
2024/01/30 03:51:03;;;;;;;6.80;6.70;;;7.40;99.90;;;;;;5054077;28;20462;-71
2024/01/30 03:53:31;;;;;;;6.90;6.80;;;7.40;99.90;;;;;;5056881;28;20952;-71
2024/01/30 03:55:58;;;;;;;6.80;6.70;;;7.40;99.90;;;;;;5056732;28;21029;-71
2024/01/30 03:58:25;;;;;;;6.53;6.43;;;7.40;99.90;;;;;;5043829;28;20503;-72
2024/01/30 04:00:52;;;;;;;6.47;6.37;;;7.40;99.90;;;;;;5057344;28;20465;-72
2024/01/30 04:03:20;;;;;;;6.50;6.40;;;7.30;99.90;;;;;;5049572;28;21044;-71
2024/01/30 04:05:48;;;;;;;6.30;6.20;;;7.30;99.90;;;;;;5052119;28;20937;-71
2024/01/30 04:08:15;;;;;;;6.10;6.00;;;7.30;99.90;;;;;;5048217;28;20832;-71
2024/01/30 04:10:42;;;;;;;6.17;6.07;;;7.30;99.90;;;;;;5049769;28;20484;-71
2024/01/30 04:13:09;;;;;;;5.80;5.70;;;7.30;99.90;;;;;;5051857;28;20479;-72
2024/01/30 04:15:36;;;;;;;6.07;5.97;;;7.30;99.90;;;;;;5051728;28;20972;-71
2024/01/30 04:18:03;;;;;;;5.50;5.40;;;7.30;99.90;;;;;;5051440;28;20940;-70
2024/01/30 04:20:30;;;;;;;5.90;5.80;;;7.30;99.90;;;;;;5052666;28;20467;-70
2024/01/30 04:22:59;;;;;;;6.40;6.30;;;7.40;99.90;;;;;;5052742;28;20481;-72
2024/01/30 04:25:26;;;;;;;6.10;6.00;;;7.40;99.90;;;;;;5049764;28;20563;-70
2024/01/30 04:27:52;;;;;;;6.10;6.00;;;7.50;99.90;;;;;;5046753;28;20850;-70
2024/01/30 04:30:20;;;;;;;6.20;6.10;;;7.40;99.90;;;;;;5049986;28;20460;-72
2024/01/30 04:32:47;;;;;;;6.20;6.10;;;7.50;99.90;;;;;;5052662;28;20473;-71
2024/01/30 04:35:13;;;;;;;6.70;6.60;;;7.50;99.90;;;;;;5051242;28;20470;-70
2024/01/30 04:37:40;;;;;;;6.80;6.70;;;7.50;99.90;;;;;;5046872;28;20468;-72
2024/01/30 04:40:09;;;;;;;6.60;6.50;;;7.50;99.90;;;;;;5052124;28;20463;-71
2024/01/30 04:42:37;;;;;;;6.47;6.37;;;7.50;99.90;;;;;;5060711;28;20567;-72
2024/01/30 04:45:03;;;;;;;6.17;6.07;;;7.50;99.90;;;;;;5052159;28;21036;-72
2024/01/30 04:47:30;;;;;;;6.03;5.93;;;7.50;99.90;;;;;;5049832;28;20555;-71
2024/01/30 04:49:57;;;;;;;6.77;6.67;;;7.50;99.90;;;;;;5045750;28;20465;-70
2024/01/30 04:52:24;;;;;;;6.20;6.10;;;7.50;99.90;;;;;;5052020;28;20464;-71
2024/01/30 04:54:51;;;;;;;6.70;6.60;;;7.50;99.90;;;;;;5048414;28;20880;-72
2024/01/30 04:57:19;;;;;;;6.13;6.03;;;7.50;99.90;;;;;;5052324;28;20467;-72
2024/01/30 04:59:45;;;;;;;6.50;6.40;;;7.50;99.90;;;;;;5049891;28;20464;-71
2024/01/30 05:02:12;;;;;;;6.90;6.80;;;7.50;99.90;;;;;;5053903;28;20468;-72
2024/01/30 05:04:39;;;;;;;6.10;6.00;;;7.50;99.90;;;;;;5053086;28;20474;-71
2024/01/30 05:07:06;;;;;;;6.63;6.53;;;7.50;99.90;;;;;;5047754;28;21021;-70
2024/01/30 05:09:33;;;;;;;6.43;6.33;;;7.50;99.90;;;;;;5047250;28;20459;-71
2024/01/30 05:12:00;;;;;;;6.10;6.00;;;7.50;99.90;;;;;;5051788;28;20543;-71
2024/01/30 05:14:29;;;;;;;6.53;6.43;;;7.40;99.90;;;;;;5046011;28;20475;-71
2024/01/30 05:16:55;;;;;;;6.20;6.10;;;7.40;99.90;;;;;;5050132;28;20903;-70
2024/01/30 05:19:23;;;;;;;6.40;6.30;;;7.40;99.90;;;;;;5049475;28;20927;-70
2024/01/30 05:21:50;;;;;;;6.70;6.60;;;7.40;99.90;;;;;;5056577;28;20460;-70
2024/01/30 05:24:17;;;;;;;6.47;6.37;;;7.30;99.90;;;;;;5049675;28;20463;-71
2024/01/30 05:26:43;;;;;;;6.60;6.50;;;7.30;99.90;;;;;;5048175;28;20510;-71
2024/01/30 05:29:10;;;;;;;6.53;6.43;;;7.30;99.90;;;;;;5057194;28;20467;-71
2024/01/30 05:31:39;;;;;;;6.67;6.57;;;7.30;99.90;;;;;;5054990;28;20987;-71
2024/01/30 05:34:06;;;;;;;6.67;6.57;;;7.30;99.90;;;;;;5049961;28;20463;-71
2024/01/30 05:36:33;;;;;;;6.60;6.50;;;7.20;99.90;;;;;;5053030;28;20467;-71
2024/01/30 05:39:00;;;;;;;6.70;6.60;;;7.20;99.90;;;;;;5055405;28;20456;-71
2024/01/30 05:41:27;;;;;;;6.30;6.20;;;7.20;99.90;;;;;;5056688;28;20839;-71
2024/01/30 05:43:54;;;;;;;6.00;5.90;;;7.20;99.90;;;;;;5051785;28;20463;-70
2024/01/30 05:46:21;;;;;;;6.20;6.10;;;7.20;99.90;;;;;;5053526;28;20491;-72
2024/01/30 05:48:51;;;;;;;6.33;6.23;;;7.20;99.90;;;;;;5052624;28;20493;-71
2024/01/30 05:51:18;;;;;;;6.30;6.20;;;7.30;99.90;;;;;;5054271;28;20825;-70
2024/01/30 05:53:45;;;;;;;6.17;6.07;;;7.30;99.90;;;;;;5051059;28;20525;-71
2024/01/30 05:56:12;;;;;;;6.33;6.23;;;7.30;99.90;;;;;;5059496;28;20808;-71
2024/01/30 05:58:39;;;;;;;6.00;5.90;;;7.30;99.90;;;;;;5047827;28;20497;-71
2024/01/30 06:01:09;;;;;;;6.00;5.90;;;7.30;99.90;;;;;;5052918;28;20490;-71
2024/01/30 06:03:38;;;;;;;5.97;5.87;;;7.20;99.90;;;;;;5053178;28;20470;-71
2024/01/30 06:06:09;;;;;;;6.10;6.00;;;7.20;99.90;;;;;;5051774;28;20460;-71
2024/01/30 06:08:36;;;;;;;6.10;6.00;;;7.30;99.90;;;;;;5055756;28;20859;-71
2024/01/30 06:11:03;;;;;;;6.40;6.30;;;7.30;99.90;;;;;;5055500;28;20468;-71
2024/01/30 06:13:31;;;;;;;6.50;6.40;;;7.30;99.90;;;;;;5052425;28;20475;-71
2024/01/30 06:15:58;;;;;;;6.73;6.63;;;7.30;99.90;;;;;;5050125;28;20498;-70
2024/01/30 06:18:27;;;;;;;5.90;5.80;;;7.30;99.90;;;;;;5054720;28;20497;-70
2024/01/30 06:20:54;;;;;;;6.07;5.97;;;7.40;99.90;;;;;;5050066;28;20984;-70
2024/01/30 06:23:22;;;;;;;5.60;5.50;;;7.40;99.90;;;;;;5060203;28;20464;-71
2024/01/30 06:25:49;;;;;;;5.90;5.80;;;7.40;99.90;;;;;;5055030;28;20456;-70
2024/01/30 06:28:16;;;;;;;6.00;5.90;;;7.40;99.90;;;;;;5048017;28;20828;-71
2024/01/30 06:30:43;;;;;;;5.87;5.77;;;7.40;99.90;;;;;;5052378;28;20471;-71
2024/01/30 06:33:13;;;;;;;6.00;5.90;;;7.40;99.90;;;;;;5050229;28;20543;-71
2024/01/30 06:35:40;;;;;;;6.13;6.03;;;7.50;99.90;;;;;;5053181;28;20498;-71
2024/01/30 06:38:06;;;;;;;6.20;6.10;;;7.40;99.90;;;;;;5047325;28;20466;-71
2024/01/30 06:40:36;;;;;;;6.30;6.20;;;7.50;99.90;;;;;;5050257;28;20453;-70
2024/01/30 06:43:04;;;;;;;6.40;6.30;;;7.50;99.90;;;;;;5057153;28;20464;-71
2024/01/30 06:45:30;;;;;;;5.70;5.60;;;7.50;99.90;;;;;;5051832;28;20490;-71
2024/01/30 06:47:57;;;;;;;6.20;6.10;;;7.50;99.90;;;;;;5054055;28;20978;-71
2024/01/30 06:50:24;;;;;;;6.00;5.90;;;7.40;99.90;;;;;;5055727;28;20457;-72
2024/01/30 06:52:51;;;;;;;5.93;5.83;;;7.40;99.90;;;;;;5046855;28;20539;-72
2024/01/30 06:55:19;;;;;;;6.23;6.13;;;7.50;99.90;;;;;;5053964;28;20484;-72
2024/01/30 06:57:47;;;;;;;6.57;6.47;;;7.50;99.90;;;;;;5055262;28;20486;-72
2024/01/30 07:00:15;;;;;;;6.13;6.03;;;7.50;99.90;;;;;;5059338;28;20462;-70
2024/01/30 07:02:42;;;;;;;6.43;6.33;;;7.60;99.90;;;;;;5050650;28;20474;-71
2024/01/30 07:05:09;;;;;;;6.47;6.37;;;7.60;99.90;;;;;;5048950;28;21078;-70
2024/01/30 07:07:37;;;;;;;7.00;6.90;;;7.60;99.90;;;;;;5056087;28;21006;-71
2024/01/30 07:10:05;;;;;;;6.87;6.77;;;7.60;99.90;;;;;;5050726;28;20986;-71
2024/01/30 07:12:32;;;;;;;6.60;6.50;;;7.70;99.90;;;;;;5048868;28;20907;-71
2024/01/30 07:15:02;;;;;;;7.00;6.90;;;7.70;99.90;;;;;;5054574;28;20464;-72
2024/01/30 07:17:29;;;;;;;6.83;6.73;;;7.70;99.90;;;;;;5053824;28;20811;-71
2024/01/30 07:19:57;;;;;;;6.60;6.50;;;7.70;99.90;;;;;;5048783;28;20464;-71
2024/01/30 07:22:24;;;;;;;6.67;6.57;;;7.70;99.90;;;;;;5048491;28;20467;-71
2024/01/30 07:24:51;;;;;;;6.70;6.60;;;7.80;99.90;;;;;;5052991;28;20467;-71
2024/01/30 07:27:19;;;;;;;6.50;6.40;;;7.80;99.90;;;;;;5052196;28;20489;-70
2024/01/30 07:29:45;;;;;;;6.70;6.60;;;7.80;99.90;;;;;;5052954;28;20912;-71
2024/01/30 07:32:14;;;;;;;6.67;6.57;;;7.80;99.90;;;;;;5051880;28;20471;-71
2024/01/30 07:34:42;;;;;;;7.13;7.03;;;7.80;99.90;;;;;;5043310;28;20470;-71
2024/01/30 07:37:09;;;;;;;6.73;6.63;;;7.90;99.90;;;;;;5053989;28;20477;-71
2024/01/30 07:39:36;;;;;;;7.23;7.13;;;7.90;99.90;;;;;;5050567;28;20457;-72
2024/01/30 07:42:03;;;;;;;7.70;7.60;;;8.00;99.90;;;;;;5057338;28;20529;-72
2024/01/30 07:44:30;;;;;;;6.83;6.73;;;8.00;99.90;;;;;;5059224;28;20469;-71
2024/01/30 07:46:58;;;;;;;7.10;7.00;;;8.00;99.90;;;;;;5048550;28;21004;-71
2024/01/30 07:49:26;;;;;;;7.83;7.73;;;8.10;99.90;;;;;;5051116;28;20478;-70
2024/01/30 07:51:53;;;;;;;8.23;8.13;;;8.10;99.90;;;;;;5054918;28;20453;-71
2024/01/30 07:54:19;;;;;;;8.40;8.30;;;8.10;99.90;;;;;;5055603;28;20495;-71
2024/01/30 07:56:46;;;;;;;7.50;7.40;;;8.10;99.90;;;;;;5050937;28;20968;-71
2024/01/30 07:59:13;;;;;;;8.03;7.93;;;8.20;99.90;;;;;;5056859;28;20478;-71
2024/01/30 08:01:40;;;;;;;8.07;7.97;;;8.20;99.90;;;;;;5045881;28;20549;-71
2024/01/30 08:04:07;;;;;;;8.50;8.40;;;8.30;99.90;;;;;;5049666;28;20463;-72
2024/01/30 08:06:36;;;;;;;8.10;8.00;;;8.40;99.90;;;;;;5050839;28;20889;-72
2024/01/30 08:09:03;;;;;;;8.50;8.40;;;8.40;99.90;;;;;;5051400;28;20464;-71
2024/01/30 08:11:31;;;;;;;8.90;8.70;;;8.40;99.90;;;;;;5039760;28;20613;-71
2024/01/30 08:13:58;;;;;;;8.90;8.70;;;8.50;99.90;;;;;;5051238;28;20454;-71
2024/01/30 08:16:25;;;;;;;8.47;8.37;;;8.50;99.90;;;;;;5044617;28;20456;-72
2024/01/30 08:18:53;;;;;;;8.87;8.67;;;8.60;99.90;;;;;;5047732;28;20571;-71
2024/01/30 08:21:20;;;;;;;9.30;9.10;;;8.60;99.90;;;;;;5044945;28;20471;-71
2024/01/30 08:23:48;;;;;;;9.00;8.80;;;8.70;99.90;;;;;;5046517;28;21047;-71
2024/01/30 08:26:15;;;;;;;9.23;9.03;;;8.80;99.90;;;;;;5044148;28;20466;-72
2024/01/30 08:28:41;;;;;;;9.33;9.13;;;8.90;99.90;;;;;;5048144;28;20895;-71
2024/01/30 08:31:11;;;;;;;9.30;9.10;;;8.80;99.90;;;;;;5048831;28;20454;-71
2024/01/30 08:33:37;;;;;;;9.30;9.10;;;8.90;99.90;;;;;;5047180;28;20974;-71
2024/01/30 08:36:04;;;;;;;9.50;9.30;;;8.90;99.90;;;;;;5046086;28;20480;-71
2024/01/30 08:38:31;;;;;;;10.07;9.87;;;9.00;99.90;;;;;;5048368;28;20858;-72
2024/01/30 08:40:59;;;;;;;10.00;9.80;;;9.10;99.90;;;;;;5043081;28;20460;-72
2024/01/30 08:43:26;;;;;;;9.87;9.67;;;9.10;99.90;;;;;;5047831;28;20841;-71
2024/01/30 08:45:53;;;;;;;10.20;10.00;;;9.20;99.90;;;;;;5044513;28;20459;-72
2024/01/30 08:48:21;;;;;;;10.13;9.93;;;9.10;99.90;;;;;;5047112;28;20486;-72
2024/01/30 08:50:48;;;;;;;10.03;9.83;;;9.20;99.90;;;;;;5047099;28;20943;-72
2024/01/30 08:53:14;;;;;;;10.47;10.17;;;9.20;99.90;;;;;;5046143;28;20471;-72
2024/01/30 08:55:42;;;;;;;10.10;9.90;;;9.20;99.90;;;;;;5047494;28;20491;-72
2024/01/30 08:58:10;;;;;;;10.43;10.13;;;9.20;99.90;;;;;;5042977;28;20483;-72
2024/01/30 09:00:37;;;;;;;10.57;10.27;;;9.20;99.90;;;;;;5047584;28;20471;-71
2024/01/30 09:03:04;;;;;;;10.33;10.10;;;9.30;99.90;;;;;;5049017;28;20523;-71
2024/01/30 09:05:31;;;;;;;10.57;10.27;;;9.40;99.90;;;;;;5052089;28;20465;-71
2024/01/30 09:07:58;;;;;;;10.70;10.40;;;9.40;99.90;;;;;;5047485;28;21019;-71
2024/01/30 09:10:25;;;;;;;10.43;10.13;;;9.40;99.90;;;;;;5050959;28;20472;-72
2024/01/30 09:12:51;;;;;;;11.50;11.20;;;9.50;99.90;;;;;;5052216;28;20471;-72
2024/01/30 09:15:20;;;;;;;11.63;11.33;;;9.60;99.90;;;;;;5049306;28;20468;-71
2024/01/30 09:17:46;;;;;;;11.70;11.40;;;9.70;99.90;;;;;;5051376;28;20515;-72
2024/01/30 09:22:54;;;;;;;12.00;11.60;;;9.90;99.90;;;;;;5051662;28;20472;-72
2024/01/30 09:25:21;;;;;;;11.60;11.30;;;9.80;99.90;;;;;;5046173;28;20466;-72
2024/01/30 09:27:48;;;;;;;12.40;12.00;;;9.90;99.90;;;;;;5050783;28;20479;-72
2024/01/30 09:30:15;;;;;;;12.40;12.00;;;10.00;99.90;;;;;;5049162;28;20473;-71
2024/01/30 09:32:44;;;;;;;12.43;12.03;;;10.00;99.90;;;;;;5045145;28;21131;-71
2024/01/30 09:35:11;;;;;;;12.30;11.90;;;10.20;99.90;;;;;;5047966;28;20839;-72
2024/01/30 09:37:38;;;;;;;12.17;11.77;;;10.30;99.90;;;;;;5048905;28;20463;-72
2024/01/30 09:40:07;;;;;;;12.77;12.37;;;10.40;99.90;;;;;;5049875;28;20468;-72
2024/01/30 09:42:36;;;;;;;12.80;12.40;;;10.50;99.90;;;;;;5044383;28;20983;-71
2024/01/30 09:45:04;;;;;;;12.93;12.53;;;10.60;99.90;;;;;;5032651;28;21077;-71
2024/01/30 09:47:32;;;;;;;12.63;12.23;;;10.70;99.90;;;;;;5035987;28;20524;-71
2024/01/30 09:50:05;;;;;;;13.10;12.70;;;10.80;99.90;;;;;;5050046;28;20467;-72
2024/01/30 09:52:32;;;;;;;12.73;12.33;;;10.90;99.90;;;;;;5046031;28;21026;-72
2024/01/30 09:55:01;;;;;;;12.80;12.40;;;11.00;99.90;;;;;;5044388;28;20484;-72
2024/01/30 09:57:27;;;;;;;13.07;12.67;;;11.10;99.90;;;;;;5049340;28;20463;-71
2024/01/30 09:59:55;;;;;;;12.83;12.43;;;11.20;99.90;;;;;;5049041;28;20463;-72
2024/01/30 10:02:21;;;;;;;13.00;12.60;;;11.40;99.90;;;;;;5043731;28;20838;-71
2024/01/30 10:04:50;;;;;;;13.07;12.67;;;11.50;99.90;;;;;;5046668;28;20486;-72
2024/01/30 10:07:18;;;;;;;13.13;12.73;;;11.60;99.90;;;;;;5046785;28;21401;-72
2024/01/30 10:09:45;;;;;;;13.10;12.70;;;11.70;99.90;;;;;;5046497;28;20510;-72
2024/01/30 10:12:12;;;;;;;13.10;12.70;;;11.70;99.90;;;;;;5048946;28;20558;-72
2024/01/30 10:14:39;;;;;;;13.00;12.60;;;11.90;99.90;;;;;;5050804;28;20472;-72
2024/01/30 10:17:08;;;;;;;12.93;12.53;;;11.90;99.90;;;;;;5048601;28;20462;-72
2024/01/30 10:19:35;;;;;;;12.83;12.43;;;12.00;99.90;;;;;;5047147;28;20455;-73
2024/01/30 10:22:02;;;;;;;13.40;12.90;;;12.10;99.90;;;;;;5046120;28;20460;-73
2024/01/30 10:24:31;;;;;;;13.23;12.80;;;12.20;99.90;;;;;;5050093;28;20463;-70
2024/01/30 10:26:58;;;;;;;13.10;12.70;;;12.30;99.90;;;;;;5045953;28;20465;-71
2024/01/30 10:29:25;;;;;;;12.60;12.20;;;12.30;99.90;;;;;;5050526;28;20896;-72
2024/01/30 10:32:02;;;;;;;13.10;12.70;;;12.40;99.90;;;;;;5049632;28;20557;-71
2024/01/30 10:34:29;;;;;;;12.77;12.37;;;12.40;99.90;;;;;;5043507;28;20460;-71
2024/01/30 10:37:06;;;;;;;12.67;12.27;;;12.40;99.90;;;;;;5048477;28;20901;-72
2024/01/30 10:39:38;;;;;;;12.70;12.30;;;12.50;99.90;;;;;;5049279;28;20587;-71
2024/01/30 10:42:06;;;;;;;12.60;12.20;;;12.50;99.90;;;;;;5048684;28;20490;-72
2024/01/30 10:44:40;;;;;;;12.83;12.43;;;12.50;99.90;;;;;;5046613;28;20478;-71
2024/01/30 10:47:10;;;;;;;13.10;12.70;;;12.60;99.90;;;;;;5049658;28;20493;-71
2024/01/30 10:49:38;;;;;;;12.80;12.40;;;12.70;99.90;;;;;;5046205;28;20527;-71
2024/01/30 10:52:06;;;;;;;13.00;12.60;;;12.70;99.90;;;;;;5048488;28;20554;-71
2024/01/30 10:54:35;;;;;;;12.70;12.30;;;12.90;99.90;;;;;;5044343;28;20855;-71
2024/01/30 10:57:04;;;;;;;13.27;12.87;;;13.00;99.90;;;;;;5048395;28;20464;-71
2024/01/30 10:59:32;;;;;;;13.30;12.90;;;13.10;99.90;;;;;;5045399;28;20494;-72
2024/01/30 11:01:59;;;;;;;13.23;12.83;;;13.20;99.90;;;;;;5044877;28;20462;-71
2024/01/30 11:04:26;;;;;;;13.70;13.20;;;13.20;99.90;;;;;;5047701;28;20478;-71
2024/01/30 11:06:54;;;;;;;13.13;12.73;;;13.10;99.90;;;;;;5048380;28;20905;-72
2024/01/30 11:09:21;;;;;;;13.30;12.80;;;13.10;99.90;;;;;;5046812;28;20500;-71
2024/01/30 11:11:59;;;;;;;13.07;12.67;;;13.10;99.90;;;;;;5048555;28;20483;-71
2024/01/30 11:14:26;;;;;;;13.13;12.73;;;13.10;99.90;;;;;;5048621;28;21006;-71
2024/01/30 11:16:53;;;;;;;12.80;12.40;;;13.10;99.90;;;;;;5047781;28;20468;-71
2024/01/30 11:19:25;;;;;;;13.00;12.60;;;13.00;99.90;;;;;;5048587;28;20473;-71
2024/01/30 11:21:53;;;;;;;12.50;12.10;;;13.00;99.90;;;;;;5042285;28;20557;-72
2024/01/30 11:24:21;;;;;;;12.57;12.17;;;13.00;99.90;;;;;;5048102;28;20463;-72
2024/01/30 11:26:49;;;;;;;12.83;12.43;;;13.00;99.90;;;;;;5048381;28;20455;-71
2024/01/30 11:29:18;;;;;;;13.00;12.60;;;12.90;99.90;;;;;;5048642;28;20500;-71
2024/01/30 11:31:53;;;;;;;13.00;12.60;;;12.90;99.90;;;;;;5043213;28;20461;-71
2024/01/30 11:34:21;;;;;;;12.43;12.03;;;12.90;99.90;;;;;;5043239;28;20886;-71
2024/01/30 11:36:54;;;;;;;12.13;11.77;;;12.80;99.90;;;;;;5047777;28;20466;-71
2024/01/30 11:39:23;;;;;;;12.43;12.03;;;12.90;99.90;;;;;;5047572;28;20470;-71
2024/01/30 11:41:53;;;;;;;12.20;11.80;;;12.70;99.90;;;;;;5046531;28;20922;-71
2024/01/30 11:44:21;;;;;;;12.27;11.87;;;12.80;99.90;;;;;;5044465;28;20468;-71
2024/01/30 11:46:49;;;;;;;12.47;12.07;;;12.90;99.90;;;;;;5044731;28;20471;-72
2024/01/30 11:49:17;;;;;;;11.80;11.50;;;12.80;99.90;;;;;;5046208;28;20502;-71
2024/01/30 11:51:59;;;;;;;11.63;11.33;;;12.80;99.90;;;;;;5044038;28;21086;-71
2024/01/30 11:54:26;;;;;;;12.10;11.70;;;12.90;99.90;;;;;;5044601;28;20832;-72
2024/01/30 11:56:53;;;;;;;12.53;12.13;;;12.90;99.90;;;;;;5045189;28;20457;-72
2024/01/30 11:59:22;;;;;;;12.40;12.00;;;12.90;99.90;;;;;;5046108;28;21210;-72
2024/01/30 12:01:49;;;;;;;12.43;12.03;;;12.70;99.90;;;;;;5044635;28;20461;-71
2024/01/30 12:04:18;;;;;;;12.20;11.80;;;12.80;99.90;;;;;;5041579;28;20505;-71
2024/01/30 12:06:45;;;;;;;12.00;11.60;;;12.80;99.90;;;;;;5044624;28;20461;-71
2024/01/30 12:09:13;;;;;;;12.03;11.70;;;12.90;99.90;;;;;;5041248;28;20598;-71
2024/01/30 12:11:46;;;;;;;11.50;11.20;;;12.80;99.90;;;;;;5046125;28;20452;-72
2024/01/30 12:14:13;;;;;;;11.83;11.53;;;12.80;99.90;;;;;;5042947;28;20524;-72
2024/01/30 12:16:42;;;;;;;12.40;12.00;;;12.70;99.90;;;;;;5041035;28;20964;-72
2024/01/30 12:19:09;;;;;;;11.73;11.43;;;12.90;99.90;;;;;;5043718;28;20539;-72
2024/01/30 12:21:36;;;;;;;11.77;11.47;;;13.00;99.90;;;;;;5046258;28;20826;-72
2024/01/30 12:24:03;;;;;;;11.90;11.60;;;12.90;99.90;;;;;;5042163;28;20967;-71
2024/01/30 12:26:30;;;;;;;12.10;11.73;;;12.80;99.90;;;;;;5044611;28;20817;-72
2024/01/30 12:28:58;;;;;;;12.87;12.47;;;12.70;99.90;;;;;;5044355;28;20648;-72
2024/01/30 12:31:29;;;;;;;12.13;11.73;;;12.80;99.90;;;;;;5046535;28;20449;-72
2024/01/30 12:33:57;;;;;;;11.60;11.30;;;12.80;99.90;;;;;;5043364;28;20495;-72
2024/01/30 12:36:24;;;;;;;12.00;11.70;;;12.90;99.90;;;;;;5043025;28;20474;-72
2024/01/30 12:38:52;;;;;;;12.50;12.10;;;12.80;99.90;;;;;;5047919;28;20471;-72
2024/01/30 12:41:20;;;;;;;11.70;11.40;;;12.80;99.90;;;;;;5045703;28;20461;-72
2024/01/30 12:43:47;;;;;;;11.70;11.40;;;12.80;99.90;;;;;;5046263;28;20462;-72
2024/01/30 12:46:14;;;;;;;11.80;11.50;;;12.90;99.90;;;;;;5043869;28;21175;-71
2024/01/30 12:48:41;;;;;;;11.50;11.20;;;12.80;99.90;;;;;;5041415;28;20488;-72
2024/01/30 12:51:09;;;;;;;11.47;11.17;;;12.70;99.90;;;;;;5046653;28;20460;-72
2024/01/30 12:53:36;;;;;;;11.90;11.60;;;12.70;99.90;;;;;;5047894;28;20504;-72